Airfield :
LOGIN :

Register | Disclaimer

   EN    FR    IT 

 










Legend :    VFR   Marginal VFR   IFR   Intensive IFR   Very Intensive IFR
Visi :
Ceiling :
>= 8 km
>= 3000ft
5 to 8 km
1000 to 3000 ft
1500m to 5 km
500 to 1000 ft
800 to 1500m
200 to 500 ft
< 800m
< 200 ft
Symbols :   Thunderstorms  Fog  Heavy snow  Heavy precipitations  Wind > 20 kt
SIGMETs :     Misc.  Thunderstorms  Icing  Turbulence  Mountain Waves  Volcanic Ashes







- Airport Elevation : 13 ft
- IATA code : GOA


LIMJ - Genoa Cristoforo Colombo

CURRENT METAR :
  • 262220Z 05009KT CAVOK 13/M06 Q1021

EXPIRED METARs :
  • 262150Z 05011KT CAVOK 13/M06 Q1021
  • 262120Z 05006KT 320V090 CAVOK 13/M06 Q1021
  • 262050Z 04007KT 360V070 CAVOK 13/M07 Q1021
  • 262020Z VRB03KT CAVOK 13/M07 Q1021
  • 261950Z 36007KT 340V060 CAVOK 13/M07 Q1020

TAF TAF LIMJ
Valid from the 26 at 18:00 until the 27 at 18:00 UTC


261700Z 2618/2718 02015KT CAVOK
TEMPO 2618/2621 34015G25KT
No reported NOTAMs for that airfield.
2 SIGMETs reported for the Milano FIR (LIMM) :
 
Severe turbulence
LIMM SIGMET 15 VALID 262100/270100 LIIP
LIMM MILANO FIR SEV TURB FCST WI N4425 E00912 - N4445 E01018 - N4340 E01214 - N4339 E01021 - N4425 E00912 BLW FL070 STNR NC=
Severe turbulence
LIMM SIGMET 14 VALID 262100/270100 LIIP
LIMM MILANO FIR SEV TURB FCST S OF LINE N4504 E00620 - N4640 E01304 FL180/360 STNR NC=



MET'MAP, your aeronautical weather chart ! - Copyright ORBIFLY December 2007 - Disclaimer

ORBIFLY MET'MAP TEAM :

Programming & Development : Alexandra Zaïnal
Concept & Development : Baudouin d'Aumeries
Co-Development & Prog : Marc-Olivier Méhu
Technical & hardware support : Manuel Goepfert

Contact : metmap@orbifly.com




SOURCES & CREDITS :

   NOAA